Terminal Aerodrome Forecast
Issued by NWS

Home | Current Version | Previous Version | Text Only | Print | Product List | Glossary On
Versions: 1 2 3 4 5 6 7 8 9 10 11 12 13 14 15 16
000
FTUS45 KGJT 201125
TAFEGE
TAF
KEGE 201125Z 2012/2112 26005KT P6SM OVC090
     FM201700 23008KT P6SM FEW090 FEW200
     FM201900 23013G22KT P6SM FEW110 FEW200
     FM210100 22009KT P6SM FEW110 FEW250
     FM210400 15005KT P6SM SKC WS020/22030KT
     FM210800 18005KT P6SM SKC WS008/21015KT
      AMD LTD TO CLD VIS AND WIND TIL 201300=

USA.gov is the U.S. government's official web portal to all federal, state and local government web resources and services.